sensor_id;sensor_type;location;lat;lon;timestamp;temperature;humidity
24470;DHT22;12635;50.852;5.676;2023-04-24T00:01:56;8.50;99.90
24470;DHT22;12635;50.852;5.676;2023-04-24T00:04:23;8.60;99.90
24470;DHT22;12635;50.852;5.676;2023-04-24T00:06:51;8.60;99.90
24470;DHT22;12635;50.852;5.676;2023-04-24T00:09:19;8.60;99.90
24470;DHT22;12635;50.852;5.676;2023-04-24T00:11:46;8.70;99.90
24470;DHT22;12635;50.852;5.676;2023-04-24T00:14:13;8.70;99.90
24470;DHT22;12635;50.852;5.676;2023-04-24T00:16:41;8.70;99.90
24470;DHT22;12635;50.852;5.676;2023-04-24T00:19:08;8.70;99.90
24470;DHT22;12635;50.852;5.676;2023-04-24T00:21:38;8.70;99.90
24470;DHT22;12635;50.852;5.676;2023-04-24T00:24:04;8.70;99.90
24470;DHT22;12635;50.852;5.676;2023-04-24T00:26:31;8.70;99.90
24470;DHT22;12635;50.852;5.676;2023-04-24T00:28:58;8.80;99.90
24470;DHT22;12635;50.852;5.676;2023-04-24T00:31:25;8.70;99.90
24470;DHT22;12635;50.852;5.676;2023-04-24T00:33:53;8.80;99.90
24470;DHT22;12635;50.852;5.676;2023-04-24T00:36:20;8.80;99.90
24470;DHT22;12635;50.852;5.676;2023-04-24T00:38:47;8.80;99.90
24470;DHT22;12635;50.852;5.676;2023-04-24T00:41:14;8.80;99.90
24470;DHT22;12635;50.852;5.676;2023-04-24T00:43:40;8.80;99.90
24470;DHT22;12635;50.852;5.676;2023-04-24T00:46:07;8.80;99.90
24470;DHT22;12635;50.852;5.676;2023-04-24T00:48:34;8.80;99.90
24470;DHT22;12635;50.852;5.676;2023-04-24T00:51:02;8.80;99.90
24470;DHT22;12635;50.852;5.676;2023-04-24T00:53:29;8.90;99.90
24470;DHT22;12635;50.852;5.676;2023-04-24T00:55:56;8.90;99.90
24470;DHT22;12635;50.852;5.676;2023-04-24T00:58:24;8.90;99.90
24470;DHT22;12635;50.852;5.676;2023-04-24T01:00:51;8.90;99.90
24470;DHT22;12635;50.852;5.676;2023-04-24T01:03:19;8.90;99.90
24470;DHT22;12635;50.852;5.676;2023-04-24T01:05:46;8.90;99.90
24470;DHT22;12635;50.852;5.676;2023-04-24T01:08:15;8.90;99.90
24470;DHT22;12635;50.852;5.676;2023-04-24T01:10:42;8.90;99.90
24470;DHT22;12635;50.852;5.676;2023-04-24T01:13:10;8.90;99.90
24470;DHT22;12635;50.852;5.676;2023-04-24T01:15:37;8.90;99.90
24470;DHT22;12635;50.852;5.676;2023-04-24T01:18:04;8.90;99.90
24470;DHT22;12635;50.852;5.676;2023-04-24T01:20:31;8.90;99.90
24470;DHT22;12635;50.852;5.676;2023-04-24T01:23:00;8.90;99.90
24470;DHT22;12635;50.852;5.676;2023-04-24T01:25:27;8.90;99.90
24470;DHT22;12635;50.852;5.676;2023-04-24T01:27:54;8.90;99.90
24470;DHT22;12635;50.852;5.676;2023-04-24T01:30:21;9.00;99.90
24470;DHT22;12635;50.852;5.676;2023-04-24T01:32:48;8.90;99.90
24470;DHT22;12635;50.852;5.676;2023-04-24T01:35:15;9.00;99.90
24470;DHT22;12635;50.852;5.676;2023-04-24T01:37:42;9.00;99.90
24470;DHT22;12635;50.852;5.676;2023-04-24T01:40:10;9.00;99.90
24470;DHT22;12635;50.852;5.676;2023-04-24T01:42:37;9.00;99.90
24470;DHT22;12635;50.852;5.676;2023-04-24T01:45:04;9.00;99.90
24470;DHT22;12635;50.852;5.676;2023-04-24T01:47:31;9.00;99.90
24470;DHT22;12635;50.852;5.676;2023-04-24T01:49:58;9.00;99.90
24470;DHT22;12635;50.852;5.676;2023-04-24T01:52:25;9.00;99.90
24470;DHT22;12635;50.852;5.676;2023-04-24T01:54:54;9.00;99.90
24470;DHT22;12635;50.852;5.676;2023-04-24T01:57:22;9.00;99.90
24470;DHT22;12635;50.852;5.676;2023-04-24T01:59:50;9.00;99.90
24470;DHT22;12635;50.852;5.676;2023-04-24T02:02:17;9.00;99.90
24470;DHT22;12635;50.852;5.676;2023-04-24T02:04:44;9.00;99.90
24470;DHT22;12635;50.852;5.676;2023-04-24T02:07:11;9.00;99.90
24470;DHT22;12635;50.852;5.676;2023-04-24T02:09:37;9.00;99.90
24470;DHT22;12635;50.852;5.676;2023-04-24T02:12:04;8.90;99.90
24470;DHT22;12635;50.852;5.676;2023-04-24T02:14:32;9.00;99.90
24470;DHT22;12635;50.852;5.676;2023-04-24T02:16:59;8.90;99.90
24470;DHT22;12635;50.852;5.676;2023-04-24T02:19:26;8.90;99.90
24470;DHT22;12635;50.852;5.676;2023-04-24T02:21:53;8.90;99.90
24470;DHT22;12635;50.852;5.676;2023-04-24T02:24:20;8.90;99.90
24470;DHT22;12635;50.852;5.676;2023-04-24T02:26:47;9.00;99.90
24470;DHT22;12635;50.852;5.676;2023-04-24T02:29:13;9.00;99.90
24470;DHT22;12635;50.852;5.676;2023-04-24T02:31:42;9.00;99.90
24470;DHT22;12635;50.852;5.676;2023-04-24T02:34:08;9.00;99.90
24470;DHT22;12635;50.852;5.676;2023-04-24T02:36:35;9.00;99.90
24470;DHT22;12635;50.852;5.676;2023-04-24T02:39:02;8.90;99.90
24470;DHT22;12635;50.852;5.676;2023-04-24T02:41:29;8.90;99.90
24470;DHT22;12635;50.852;5.676;2023-04-24T02:43:58;8.80;99.90
24470;DHT22;12635;50.852;5.676;2023-04-24T02:46:25;8.70;99.90
24470;DHT22;12635;50.852;5.676;2023-04-24T02:48:53;8.70;99.90
24470;DHT22;12635;50.852;5.676;2023-04-24T02:51:20;8.70;99.90
24470;DHT22;12635;50.852;5.676;2023-04-24T02:53:47;8.70;99.90
24470;DHT22;12635;50.852;5.676;2023-04-24T02:56:13;8.70;99.90
24470;DHT22;12635;50.852;5.676;2023-04-24T02:58:40;8.70;99.90
24470;DHT22;12635;50.852;5.676;2023-04-24T03:01:07;8.70;99.90
24470;DHT22;12635;50.852;5.676;2023-04-24T03:03:35;8.70;99.90
24470;DHT22;12635;50.852;5.676;2023-04-24T03:06:03;8.70;99.90
24470;DHT22;12635;50.852;5.676;2023-04-24T03:08:31;8.60;99.90
24470;DHT22;12635;50.852;5.676;2023-04-24T03:10:57;8.60;99.90
24470;DHT22;12635;50.852;5.676;2023-04-24T03:13:24;8.50;99.90
24470;DHT22;12635;50.852;5.676;2023-04-24T03:15:51;8.40;99.90
24470;DHT22;12635;50.852;5.676;2023-04-24T03:18:18;8.30;99.90
24470;DHT22;12635;50.852;5.676;2023-04-24T03:20:45;8.20;99.90
24470;DHT22;12635;50.852;5.676;2023-04-24T03:23:14;8.10;99.90
24470;DHT22;12635;50.852;5.676;2023-04-24T03:25:40;8.10;99.90
24470;DHT22;12635;50.852;5.676;2023-04-24T03:28:08;8.00;99.90
24470;DHT22;12635;50.852;5.676;2023-04-24T03:30:35;8.00;99.90
24470;DHT22;12635;50.852;5.676;2023-04-24T03:33:01;7.90;99.90
24470;DHT22;12635;50.852;5.676;2023-04-24T03:35:28;8.00;99.90
24470;DHT22;12635;50.852;5.676;2023-04-24T03:37:55;8.00;99.90
24470;DHT22;12635;50.852;5.676;2023-04-24T03:40:23;7.90;99.90
24470;DHT22;12635;50.852;5.676;2023-04-24T03:42:50;7.90;99.90
24470;DHT22;12635;50.852;5.676;2023-04-24T03:45:17;8.00;99.90
24470;DHT22;12635;50.852;5.676;2023-04-24T03:47:44;7.90;99.90
24470;DHT22;12635;50.852;5.676;2023-04-24T03:50:11;7.90;99.90
24470;DHT22;12635;50.852;5.676;2023-04-24T03:52:38;7.90;99.90
24470;DHT22;12635;50.852;5.676;2023-04-24T03:55:05;7.90;99.90
24470;DHT22;12635;50.852;5.676;2023-04-24T03:57:33;7.90;99.90
24470;DHT22;12635;50.852;5.676;2023-04-24T04:00:00;7.90;99.90
24470;DHT22;12635;50.852;5.676;2023-04-24T04:02:30;7.90;99.90
24470;DHT22;12635;50.852;5.676;2023-04-24T04:04:56;7.90;99.90
24470;DHT22;12635;50.852;5.676;2023-04-24T04:07:23;7.90;99.90
24470;DHT22;12635;50.852;5.676;2023-04-24T04:09:50;8.00;99.90
24470;DHT22;12635;50.852;5.676;2023-04-24T04:12:18;7.90;99.90
24470;DHT22;12635;50.852;5.676;2023-04-24T04:14:46;8.00;99.90
24470;DHT22;12635;50.852;5.676;2023-04-24T04:17:12;8.00;99.90
24470;DHT22;12635;50.852;5.676;2023-04-24T04:19:39;8.00;99.90
24470;DHT22;12635;50.852;5.676;2023-04-24T04:22:07;8.00;99.90
24470;DHT22;12635;50.852;5.676;2023-04-24T04:24:34;7.90;99.90
24470;DHT22;12635;50.852;5.676;2023-04-24T04:27:06;7.90;99.90
24470;DHT22;12635;50.852;5.676;2023-04-24T04:29:33;7.80;99.90
24470;DHT22;12635;50.852;5.676;2023-04-24T04:32:01;7.80;99.90
24470;DHT22;12635;50.852;5.676;2023-04-24T04:34:28;7.80;99.90
24470;DHT22;12635;50.852;5.676;2023-04-24T04:36:56;7.70;99.90
24470;DHT22;12635;50.852;5.676;2023-04-24T04:39:24;7.70;99.90
24470;DHT22;12635;50.852;5.676;2023-04-24T04:41:53;7.70;99.90
24470;DHT22;12635;50.852;5.676;2023-04-24T04:44:20;7.80;99.90
24470;DHT22;12635;50.852;5.676;2023-04-24T04:46:47;7.80;99.90
24470;DHT22;12635;50.852;5.676;2023-04-24T04:49:15;7.80;99.90
24470;DHT22;12635;50.852;5.676;2023-04-24T04:51:42;7.80;99.90
24470;DHT22;12635;50.852;5.676;2023-04-24T04:54:09;7.80;99.90
24470;DHT22;12635;50.852;5.676;2023-04-24T04:56:35;7.70;99.90
24470;DHT22;12635;50.852;5.676;2023-04-24T04:59:02;7.60;99.90
24470;DHT22;12635;50.852;5.676;2023-04-24T05:01:29;7.60;99.90
24470;DHT22;12635;50.852;5.676;2023-04-24T05:03:56;7.50;99.90
24470;DHT22;12635;50.852;5.676;2023-04-24T05:06:24;7.50;99.90
24470;DHT22;12635;50.852;5.676;2023-04-24T05:08:51;7.40;99.90
24470;DHT22;12635;50.852;5.676;2023-04-24T05:11:22;7.40;99.90
24470;DHT22;12635;50.852;5.676;2023-04-24T05:13:49;7.50;99.90
24470;DHT22;12635;50.852;5.676;2023-04-24T05:16:16;7.50;99.90
24470;DHT22;12635;50.852;5.676;2023-04-24T05:18:42;7.50;99.90
24470;DHT22;12635;50.852;5.676;2023-04-24T05:21:10;7.50;99.90
24470;DHT22;12635;50.852;5.676;2023-04-24T05:23:38;7.50;99.90
24470;DHT22;12635;50.852;5.676;2023-04-24T05:26:05;7.50;99.90
24470;DHT22;12635;50.852;5.676;2023-04-24T05:28:32;7.60;99.90
24470;DHT22;12635;50.852;5.676;2023-04-24T05:30:58;7.60;99.90
24470;DHT22;12635;50.852;5.676;2023-04-24T05:33:26;7.70;99.90
24470;DHT22;12635;50.852;5.676;2023-04-24T05:35:53;7.70;99.90
24470;DHT22;12635;50.852;5.676;2023-04-24T05:38:20;7.70;99.90
24470;DHT22;12635;50.852;5.676;2023-04-24T05:40:48;7.70;99.90
24470;DHT22;12635;50.852;5.676;2023-04-24T05:43:15;7.70;99.90
24470;DHT22;12635;50.852;5.676;2023-04-24T05:45:42;7.70;99.90
24470;DHT22;12635;50.852;5.676;2023-04-24T05:48:08;7.70;99.90
24470;DHT22;12635;50.852;5.676;2023-04-24T05:50:35;7.60;99.90
24470;DHT22;12635;50.852;5.676;2023-04-24T05:53:02;7.70;99.90
24470;DHT22;12635;50.852;5.676;2023-04-24T05:55:30;7.70;99.90
24470;DHT22;12635;50.852;5.676;2023-04-24T05:57:58;7.70;99.90
24470;DHT22;12635;50.852;5.676;2023-04-24T06:00:25;7.70;99.90
24470;DHT22;12635;50.852;5.676;2023-04-24T06:02:52;7.70;99.90
24470;DHT22;12635;50.852;5.676;2023-04-24T06:05:19;7.80;99.90
24470;DHT22;12635;50.852;5.676;2023-04-24T06:07:46;7.70;99.90
24470;DHT22;12635;50.852;5.676;2023-04-24T06:10:13;7.70;99.90
24470;DHT22;12635;50.852;5.676;2023-04-24T06:12:40;7.60;99.90
24470;DHT22;12635;50.852;5.676;2023-04-24T06:15:09;7.70;99.90
24470;DHT22;12635;50.852;5.676;2023-04-24T06:17:37;7.60;99.90
24470;DHT22;12635;50.852;5.676;2023-04-24T06:20:04;7.60;99.90
24470;DHT22;12635;50.852;5.676;2023-04-24T06:22:31;7.60;99.90
24470;DHT22;12635;50.852;5.676;2023-04-24T06:24:59;7.60;99.90
24470;DHT22;12635;50.852;5.676;2023-04-24T06:27:25;7.50;99.90
24470;DHT22;12635;50.852;5.676;2023-04-24T06:29:52;7.50;99.90
24470;DHT22;12635;50.852;5.676;2023-04-24T06:32:22;7.40;99.90
24470;DHT22;12635;50.852;5.676;2023-04-24T06:34:50;7.40;99.90
24470;DHT22;12635;50.852;5.676;2023-04-24T06:37:17;7.40;99.90
24470;DHT22;12635;50.852;5.676;2023-04-24T06:39:44;7.40;99.90
24470;DHT22;12635;50.852;5.676;2023-04-24T06:42:11;7.40;99.90
24470;DHT22;12635;50.852;5.676;2023-04-24T06:44:38;7.40;99.90
24470;DHT22;12635;50.852;5.676;2023-04-24T06:47:07;7.30;99.90
24470;DHT22;12635;50.852;5.676;2023-04-24T06:49:36;7.30;99.90
24470;DHT22;12635;50.852;5.676;2023-04-24T06:52:03;7.30;99.90
24470;DHT22;12635;50.852;5.676;2023-04-24T06:54:30;7.30;99.90
24470;DHT22;12635;50.852;5.676;2023-04-24T06:56:57;7.30;99.90
24470;DHT22;12635;50.852;5.676;2023-04-24T06:59:24;7.20;99.90
24470;DHT22;12635;50.852;5.676;2023-04-24T07:01:51;7.20;99.90
24470;DHT22;12635;50.852;5.676;2023-04-24T07:04:18;7.20;99.90
24470;DHT22;12635;50.852;5.676;2023-04-24T07:06:46;7.30;99.90
24470;DHT22;12635;50.852;5.676;2023-04-24T07:09:14;7.20;99.90
24470;DHT22;12635;50.852;5.676;2023-04-24T07:11:43;7.20;99.90
24470;DHT22;12635;50.852;5.676;2023-04-24T07:14:10;7.20;99.90
24470;DHT22;12635;50.852;5.676;2023-04-24T07:16:37;7.20;99.90
24470;DHT22;12635;50.852;5.676;2023-04-24T07:19:04;7.20;99.90
24470;DHT22;12635;50.852;5.676;2023-04-24T07:21:31;7.30;99.90
24470;DHT22;12635;50.852;5.676;2023-04-24T07:23:59;7.30;99.90
24470;DHT22;12635;50.852;5.676;2023-04-24T07:26:28;7.30;99.90
24470;DHT22;12635;50.852;5.676;2023-04-24T07:28:55;7.40;99.90
24470;DHT22;12635;50.852;5.676;2023-04-24T07:31:22;7.40;99.90
24470;DHT22;12635;50.852;5.676;2023-04-24T07:33:49;7.40;99.90
24470;DHT22;12635;50.852;5.676;2023-04-24T07:36:16;7.40;99.90
24470;DHT22;12635;50.852;5.676;2023-04-24T07:38:44;7.50;99.90
24470;DHT22;12635;50.852;5.676;2023-04-24T07:41:12;7.60;99.90
24470;DHT22;12635;50.852;5.676;2023-04-24T07:43:39;7.60;99.90
24470;DHT22;12635;50.852;5.676;2023-04-24T07:46:06;7.70;99.90
24470;DHT22;12635;50.852;5.676;2023-04-24T07:48:33;7.70;99.90
24470;DHT22;12635;50.852;5.676;2023-04-24T07:51:00;7.70;99.90
24470;DHT22;12635;50.852;5.676;2023-04-24T07:53:27;7.70;99.90
24470;DHT22;12635;50.852;5.676;2023-04-24T07:55:54;7.70;99.90
24470;DHT22;12635;50.852;5.676;2023-04-24T07:58:22;7.70;99.90
24470;DHT22;12635;50.852;5.676;2023-04-24T08:00:49;7.70;99.90
24470;DHT22;12635;50.852;5.676;2023-04-24T08:03:16;7.80;99.90
24470;DHT22;12635;50.852;5.676;2023-04-24T08:05:45;7.90;99.90
24470;DHT22;12635;50.852;5.676;2023-04-24T08:08:12;8.00;99.90
24470;DHT22;12635;50.852;5.676;2023-04-24T08:10:39;8.00;99.90
24470;DHT22;12635;50.852;5.676;2023-04-24T08:13:06;7.90;99.90
24470;DHT22;12635;50.852;5.676;2023-04-24T08:15:34;7.90;99.90
24470;DHT22;12635;50.852;5.676;2023-04-24T08:18:01;7.80;99.90
24470;DHT22;12635;50.852;5.676;2023-04-24T08:20:27;7.80;99.90
24470;DHT22;12635;50.852;5.676;2023-04-24T08:22:54;7.80;99.90
24470;DHT22;12635;50.852;5.676;2023-04-24T08:25:21;7.70;99.90
24470;DHT22;12635;50.852;5.676;2023-04-24T08:27:50;7.80;99.90
24470;DHT22;12635;50.852;5.676;2023-04-24T08:30:17;7.80;99.90
24470;DHT22;12635;50.852;5.676;2023-04-24T08:32:45;7.90;99.90
24470;DHT22;12635;50.852;5.676;2023-04-24T08:35:12;7.90;99.90
24470;DHT22;12635;50.852;5.676;2023-04-24T08:37:39;7.90;99.90
24470;DHT22;12635;50.852;5.676;2023-04-24T08:40:08;8.00;99.90
24470;DHT22;12635;50.852;5.676;2023-04-24T08:42:37;8.00;99.90
24470;DHT22;12635;50.852;5.676;2023-04-24T08:45:04;7.90;99.90
24470;DHT22;12635;50.852;5.676;2023-04-24T08:47:31;7.90;99.90
24470;DHT22;12635;50.852;5.676;2023-04-24T08:50:01;8.00;99.90
24470;DHT22;12635;50.852;5.676;2023-04-24T08:52:28;8.00;99.90
24470;DHT22;12635;50.852;5.676;2023-04-24T08:54:55;8.10;99.90
24470;DHT22;12635;50.852;5.676;2023-04-24T08:57:23;8.20;99.90
24470;DHT22;12635;50.852;5.676;2023-04-24T08:59:51;8.30;99.90
24470;DHT22;12635;50.852;5.676;2023-04-24T09:02:18;8.30;99.90
24470;DHT22;12635;50.852;5.676;2023-04-24T09:04:45;8.50;99.90
24470;DHT22;12635;50.852;5.676;2023-04-24T09:07:13;8.80;99.90
24470;DHT22;12635;50.852;5.676;2023-04-24T09:09:40;8.90;99.90
24470;DHT22;12635;50.852;5.676;2023-04-24T09:12:08;9.10;99.90
24470;DHT22;12635;50.852;5.676;2023-04-24T09:14:35;9.20;99.90
24470;DHT22;12635;50.852;5.676;2023-04-24T09:17:04;9.40;99.90
24470;DHT22;12635;50.852;5.676;2023-04-24T09:19:32;9.50;99.90
24470;DHT22;12635;50.852;5.676;2023-04-24T09:21:59;9.40;99.90
24470;DHT22;12635;50.852;5.676;2023-04-24T09:24:27;9.30;99.90
24470;DHT22;12635;50.852;5.676;2023-04-24T09:26:56;9.10;99.90
24470;DHT22;12635;50.852;5.676;2023-04-24T09:29:23;8.80;99.90
24470;DHT22;12635;50.852;5.676;2023-04-24T09:31:50;8.70;99.90
24470;DHT22;12635;50.852;5.676;2023-04-24T09:34:20;8.60;99.90
24470;DHT22;12635;50.852;5.676;2023-04-24T09:36:47;8.80;99.90
24470;DHT22;12635;50.852;5.676;2023-04-24T09:39:15;9.20;99.90
24470;DHT22;12635;50.852;5.676;2023-04-24T09:41:46;9.50;99.90
24470;DHT22;12635;50.852;5.676;2023-04-24T09:44:14;9.30;99.90
24470;DHT22;12635;50.852;5.676;2023-04-24T09:46:41;9.40;99.90
24470;DHT22;12635;50.852;5.676;2023-04-24T09:49:09;9.80;99.90
24470;DHT22;12635;50.852;5.676;2023-04-24T09:51:36;9.60;99.90
24470;DHT22;12635;50.852;5.676;2023-04-24T09:54:04;9.90;99.90
24470;DHT22;12635;50.852;5.676;2023-04-24T09:56:34;10.60;99.90
24470;DHT22;12635;50.852;5.676;2023-04-24T09:59:06;11.20;99.90
24470;DHT22;12635;50.852;5.676;2023-04-24T10:01:34;11.60;99.90
24470;DHT22;12635;50.852;5.676;2023-04-24T10:04:00;11.80;99.90
24470;DHT22;12635;50.852;5.676;2023-04-24T10:06:32;11.30;99.90
24470;DHT22;12635;50.852;5.676;2023-04-24T10:08:59;10.80;99.90
24470;DHT22;12635;50.852;5.676;2023-04-24T10:11:26;11.10;99.90
24470;DHT22;12635;50.852;5.676;2023-04-24T10:13:53;11.00;99.90
24470;DHT22;12635;50.852;5.676;2023-04-24T10:16:22;11.40;99.90
24470;DHT22;12635;50.852;5.676;2023-04-24T10:18:49;12.30;99.90
24470;DHT22;12635;50.852;5.676;2023-04-24T10:21:17;12.30;99.90
24470;DHT22;12635;50.852;5.676;2023-04-24T10:23:43;11.70;99.90
24470;DHT22;12635;50.852;5.676;2023-04-24T10:26:12;11.70;99.90
24470;DHT22;12635;50.852;5.676;2023-04-24T10:28:43;11.10;99.90
24470;DHT22;12635;50.852;5.676;2023-04-24T10:31:11;10.70;99.90
24470;DHT22;12635;50.852;5.676;2023-04-24T10:33:39;10.60;99.90
24470;DHT22;12635;50.852;5.676;2023-04-24T10:36:07;10.40;99.90
24470;DHT22;12635;50.852;5.676;2023-04-24T10:38:34;10.20;99.90
24470;DHT22;12635;50.852;5.676;2023-04-24T10:41:07;10.10;99.90
24470;DHT22;12635;50.852;5.676;2023-04-24T10:43:34;10.20;99.90
24470;DHT22;12635;50.852;5.676;2023-04-24T10:46:02;10.50;99.90
24470;DHT22;12635;50.852;5.676;2023-04-24T10:48:29;11.60;99.90
24470;DHT22;12635;50.852;5.676;2023-04-24T10:50:59;11.80;99.90
24470;DHT22;12635;50.852;5.676;2023-04-24T10:53:28;11.70;99.90
24470;DHT22;12635;50.852;5.676;2023-04-24T10:55:57;11.50;99.90
24470;DHT22;12635;50.852;5.676;2023-04-24T10:58:24;11.70;99.90
24470;DHT22;12635;50.852;5.676;2023-04-24T11:01:01;12.00;99.90
24470;DHT22;12635;50.852;5.676;2023-04-24T11:03:29;11.80;99.90
24470;DHT22;12635;50.852;5.676;2023-04-24T11:05:57;11.90;99.90
24470;DHT22;12635;50.852;5.676;2023-04-24T11:08:26;12.00;99.90
24470;DHT22;12635;50.852;5.676;2023-04-24T11:10:57;11.80;99.90
24470;DHT22;12635;50.852;5.676;2023-04-24T11:13:25;11.60;99.90
24470;DHT22;12635;50.852;5.676;2023-04-24T11:18:37;12.00;99.90
24470;DHT22;12635;50.852;5.676;2023-04-24T11:21:09;12.40;99.90
24470;DHT22;12635;50.852;5.676;2023-04-24T11:23:38;12.90;99.90
24470;DHT22;12635;50.852;5.676;2023-04-24T11:26:11;14.00;99.90
24470;DHT22;12635;50.852;5.676;2023-04-24T11:28:43;14.30;99.90
24470;DHT22;12635;50.852;5.676;2023-04-24T11:33:56;13.90;99.90
24470;DHT22;12635;50.852;5.676;2023-04-24T11:36:23;13.30;99.90
24470;DHT22;12635;50.852;5.676;2023-04-24T11:38:51;12.60;99.90
24470;DHT22;12635;50.852;5.676;2023-04-24T11:41:18;11.80;99.90
24470;DHT22;12635;50.852;5.676;2023-04-24T11:43:45;11.50;99.90
24470;DHT22;12635;50.852;5.676;2023-04-24T11:46:15;11.30;99.90
24470;DHT22;12635;50.852;5.676;2023-04-24T11:48:44;11.80;99.90
24470;DHT22;12635;50.852;5.676;2023-04-24T11:51:11;12.30;99.90
24470;DHT22;12635;50.852;5.676;2023-04-24T11:53:38;12.30;99.90
24470;DHT22;12635;50.852;5.676;2023-04-24T11:56:07;12.60;99.90
24470;DHT22;12635;50.852;5.676;2023-04-24T11:58:35;12.80;99.90
24470;DHT22;12635;50.852;5.676;2023-04-24T12:01:02;12.70;99.90
24470;DHT22;12635;50.852;5.676;2023-04-24T12:03:30;12.80;99.90
24470;DHT22;12635;50.852;5.676;2023-04-24T12:06:06;12.20;99.90
24470;DHT22;12635;50.852;5.676;2023-04-24T12:08:34;11.70;99.90
24470;DHT22;12635;50.852;5.676;2023-04-24T12:11:01;11.60;99.90
24470;DHT22;12635;50.852;5.676;2023-04-24T12:13:29;11.90;99.90
24470;DHT22;12635;50.852;5.676;2023-04-24T12:15:56;12.40;99.90
24470;DHT22;12635;50.852;5.676;2023-04-24T12:18:23;12.60;99.90
24470;DHT22;12635;50.852;5.676;2023-04-24T12:20:50;12.40;99.90
24470;DHT22;12635;50.852;5.676;2023-04-24T12:23:28;12.10;99.90
24470;DHT22;12635;50.852;5.676;2023-04-24T12:25:59;11.80;99.90
24470;DHT22;12635;50.852;5.676;2023-04-24T12:28:34;11.70;99.90
24470;DHT22;12635;50.852;5.676;2023-04-24T12:31:02;11.90;99.90
24470;DHT22;12635;50.852;5.676;2023-04-24T12:33:32;12.30;99.90
24470;DHT22;12635;50.852;5.676;2023-04-24T12:35:59;12.60;99.90
24470;DHT22;12635;50.852;5.676;2023-04-24T12:38:27;13.40;99.90
24470;DHT22;12635;50.852;5.676;2023-04-24T12:41:01;13.20;99.90
24470;DHT22;12635;50.852;5.676;2023-04-24T12:43:28;13.20;99.90
24470;DHT22;12635;50.852;5.676;2023-04-24T12:45:55;12.90;99.90
24470;DHT22;12635;50.852;5.676;2023-04-24T12:48:23;13.00;99.90
24470;DHT22;12635;50.852;5.676;2023-04-24T12:50:50;13.10;99.90
24470;DHT22;12635;50.852;5.676;2023-04-24T12:53:17;13.10;99.90
24470;DHT22;12635;50.852;5.676;2023-04-24T12:55:44;12.60;99.90
24470;DHT22;12635;50.852;5.676;2023-04-24T12:58:12;12.60;99.90
24470;DHT22;12635;50.852;5.676;2023-04-24T13:00:39;12.50;99.90
24470;DHT22;12635;50.852;5.676;2023-04-24T13:03:08;12.70;99.90
24470;DHT22;12635;50.852;5.676;2023-04-24T13:05:37;13.30;99.90
24470;DHT22;12635;50.852;5.676;2023-04-24T13:08:04;13.10;99.90
24470;DHT22;12635;50.852;5.676;2023-04-24T13:10:30;12.90;99.90
24470;DHT22;12635;50.852;5.676;2023-04-24T13:12:57;13.20;99.90
24470;DHT22;12635;50.852;5.676;2023-04-24T13:15:24;13.40;99.90
24470;DHT22;12635;50.852;5.676;2023-04-24T13:17:51;14.20;99.90
24470;DHT22;12635;50.852;5.676;2023-04-24T13:20:18;14.10;99.90
24470;DHT22;12635;50.852;5.676;2023-04-24T13:22:46;14.60;99.90
24470;DHT22;12635;50.852;5.676;2023-04-24T13:25:13;13.70;99.90
24470;DHT22;12635;50.852;5.676;2023-04-24T13:27:42;13.70;99.90
24470;DHT22;12635;50.852;5.676;2023-04-24T13:30:10;13.40;99.90
24470;DHT22;12635;50.852;5.676;2023-04-24T13:32:37;12.70;99.90
24470;DHT22;12635;50.852;5.676;2023-04-24T13:35:04;13.20;99.90
24470;DHT22;12635;50.852;5.676;2023-04-24T13:37:31;13.30;99.90
24470;DHT22;12635;50.852;5.676;2023-04-24T13:39:59;13.80;99.90
24470;DHT22;12635;50.852;5.676;2023-04-24T13:42:26;13.40;99.90
24470;DHT22;12635;50.852;5.676;2023-04-24T13:44:53;13.40;99.90
24470;DHT22;12635;50.852;5.676;2023-04-24T13:47:20;13.10;99.90
24470;DHT22;12635;50.852;5.676;2023-04-24T13:49:47;13.40;99.90
24470;DHT22;12635;50.852;5.676;2023-04-24T13:52:15;14.00;99.90
24470;DHT22;12635;50.852;5.676;2023-04-24T13:54:42;14.70;99.90
24470;DHT22;12635;50.852;5.676;2023-04-24T13:57:10;14.80;99.90
24470;DHT22;12635;50.852;5.676;2023-04-24T13:59:37;14.50;99.90
24470;DHT22;12635;50.852;5.676;2023-04-24T14:02:04;14.30;99.90
24470;DHT22;12635;50.852;5.676;2023-04-24T14:04:30;14.90;99.90
24470;DHT22;12635;50.852;5.676;2023-04-24T14:06:57;14.70;99.90
24470;DHT22;12635;50.852;5.676;2023-04-24T14:09:24;14.30;99.90
24470;DHT22;12635;50.852;5.676;2023-04-24T14:11:51;15.10;99.90
24470;DHT22;12635;50.852;5.676;2023-04-24T14:14:19;14.60;99.90
24470;DHT22;12635;50.852;5.676;2023-04-24T14:16:46;13.90;99.90
24470;DHT22;12635;50.852;5.676;2023-04-24T14:19:13;13.70;99.90
24470;DHT22;12635;50.852;5.676;2023-04-24T14:21:40;14.30;99.90
24470;DHT22;12635;50.852;5.676;2023-04-24T14:24:07;14.40;99.90
24470;DHT22;12635;50.852;5.676;2023-04-24T14:26:34;14.30;99.90
24470;DHT22;12635;50.852;5.676;2023-04-24T14:29:01;15.20;99.90
24470;DHT22;12635;50.852;5.676;2023-04-24T14:31:29;15.40;99.90
24470;DHT22;12635;50.852;5.676;2023-04-24T14:33:56;15.10;99.90
24470;DHT22;12635;50.852;5.676;2023-04-24T14:36:23;15.50;99.90
24470;DHT22;12635;50.852;5.676;2023-04-24T14:38:50;14.90;99.90
24470;DHT22;12635;50.852;5.676;2023-04-24T14:41:17;14.90;99.90
24470;DHT22;12635;50.852;5.676;2023-04-24T14:43:44;14.20;99.90
24470;DHT22;12635;50.852;5.676;2023-04-24T14:46:11;13.60;99.90
24470;DHT22;12635;50.852;5.676;2023-04-24T14:48:39;13.10;99.90
24470;DHT22;12635;50.852;5.676;2023-04-24T14:51:06;12.60;99.90
24470;DHT22;12635;50.852;5.676;2023-04-24T14:53:33;12.30;99.90
24470;DHT22;12635;50.852;5.676;2023-04-24T14:56:00;12.40;99.90
24470;DHT22;12635;50.852;5.676;2023-04-24T14:58:27;12.30;99.90
24470;DHT22;12635;50.852;5.676;2023-04-24T15:00:54;12.40;99.90
24470;DHT22;12635;50.852;5.676;2023-04-24T15:03:21;12.60;99.90
24470;DHT22;12635;50.852;5.676;2023-04-24T15:05:50;12.80;99.90
24470;DHT22;12635;50.852;5.676;2023-04-24T15:08:17;12.80;99.90
24470;DHT22;12635;50.852;5.676;2023-04-24T15:10:43;12.80;99.90
24470;DHT22;12635;50.852;5.676;2023-04-24T15:13:10;12.70;99.90
24470;DHT22;12635;50.852;5.676;2023-04-24T15:15:37;12.80;99.90
24470;DHT22;12635;50.852;5.676;2023-04-24T15:18:04;12.60;99.90
24470;DHT22;12635;50.852;5.676;2023-04-24T15:20:33;12.50;99.90
24470;DHT22;12635;50.852;5.676;2023-04-24T15:23:01;12.50;99.90
24470;DHT22;12635;50.852;5.676;2023-04-24T15:25:28;12.30;99.90
24470;DHT22;12635;50.852;5.676;2023-04-24T15:27:55;12.10;99.90
24470;DHT22;12635;50.852;5.676;2023-04-24T15:30:23;12.20;99.90
24470;DHT22;12635;50.852;5.676;2023-04-24T15:32:50;12.00;99.90
24470;DHT22;12635;50.852;5.676;2023-04-24T15:35:16;12.00;99.90
24470;DHT22;12635;50.852;5.676;2023-04-24T15:37:44;12.10;99.90
24470;DHT22;12635;50.852;5.676;2023-04-24T15:40:12;12.10;99.90
24470;DHT22;12635;50.852;5.676;2023-04-24T15:42:41;12.10;99.90
24470;DHT22;12635;50.852;5.676;2023-04-24T15:45:08;12.30;99.90
24470;DHT22;12635;50.852;5.676;2023-04-24T15:47:35;12.30;99.90